Data for 04/25/2016

Time Sea-Level Adjusted Pressure Absolute Pressure Temperature Relative Humidity Dew Point   
(mb) (inHg) (mb) (inHg) (C) (F) (%) (C) (F)
00:05 1012 29.88 841 24.83 6.1 43 82 3.3 37.9
00:10 1012 29.88 841 24.83 6.1 42.9 83 3.3 38
00:15 1012 29.88 841 24.83 6.1 42.9 83 3.3 38
00:20 1012 29.88 841 24.83 6 42.8 83 3.3 38
00:25 1012 29.88 841 24.83 6 42.8 83 3.4 38.1
00:30 1012 29.88 841 24.83 6.1 43 84 3.5 38.3
00:35 1012 29.88 841 24.83 6.1 43 84 3.6 38.5
00:40 1012 29.88 841 24.83 5.9 42.7 85 3.5 38.4
00:45 1012 29.88 841 24.83 5.9 42.7 85 3.7 38.6
00:50 1012 29.88 841 24.83 5.9 42.6 86 3.7 38.7
00:55 1012 29.88 841 24.83 5.9 42.5 84 3.4 38.1
01:00 1012 29.88 841 24.83 5.9 42.6 84 3.3 38
01:05 1012 29.88 841 24.83 5.9 42.6 84 3.4 38.1
01:10 1012 29.88 841 24.83 5.9 42.7 84 3.4 38.2
01:15 1012 29.88 841 24.83 5.9 42.7 84 3.4 38.2
01:20 1012 29.88 841 24.83 5.9 42.7 85 3.6 38.4
01:25 1012 29.88 841 24.83 5.8 42.5 84 3.2 37.8
01:30 1012 29.88 841 24.83 5.8 42.5 84 3.3 37.9
01:35 1012 29.88 841 24.83 5.9 42.6 84 3.3 38
01:40 1011 29.85 841 24.83 5.9 42.6 83 3.3 38
01:45 1011 29.85 841 24.83 5.9 42.6 85 3.5 38.4
01:50 1011 29.85 841 24.83 5.9 42.6 84 3.5 38.3
01:55 1011 29.85 841 24.83 5.9 42.7 85 3.7 38.6
02:00 1011 29.85 841 24.83 6 42.8 86 3.8 38.8
02:05 1011 29.85 841 24.83 6 42.8 86 3.9 39.1
02:10 1011 29.85 841 24.83 6 42.8 86 3.8 38.8
02:15 1011 29.85 841 24.83 5.9 42.6 85 3.5 38.3
02:20 1011 29.85 841 24.83 5.8 42.5 85 3.5 38.2
02:25 1011 29.85 841 24.83 5.7 42.3 86 3.6 38.5
02:30 1011 29.85 841 24.83 5.7 42.2 86 3.5 38.4
02:35 1011 29.85 840 24.81 5.5 41.9 88 3.6 38.5
02:40 1011 29.85 840 24.81 5.3 41.6 89 3.6 38.5
02:45 1011 29.85 840 24.81 5.3 41.5 89 3.7 38.6
02:50 1011 29.85 840 24.81 5.3 41.6 90 3.8 38.8
02:55 1011 29.85 840 24.81 5.4 41.7 89 3.7 38.7
03:00 1011 29.85 840 24.81 5.2 41.4 89 3.6 38.5
03:05 1011 29.85 840 24.81 5.2 41.4 89 3.6 38.5
03:10 1011 29.85 840 24.81 5.3 41.5 88 3.5 38.3
03:15 1011 29.85 840 24.81 5.2 41.4 89 3.5 38.3
03:20 1011 29.85 840 24.81 5.2 41.4 89 3.5 38.3
03:25 1011 29.85 840 24.81 5.2 41.4 89 3.6 38.4
03:30 1011 29.85 840 24.81 5.2 41.3 89 3.6 38.4
03:35 1011 29.85 840 24.81 5.2 41.4 89 3.6 38.5
03:40 1011 29.85 840 24.81 5.2 41.4 89 3.5 38.3
03:45 1011 29.85 840 24.81 5.3 41.5 89 3.6 38.4
03:50 1011 29.85 840 24.81 5.4 41.6 88 3.6 38.5
03:55 1011 29.85 840 24.81 5.4 41.7 88 3.5 38.4
04:00 1011 29.85 840 24.81 5.4 41.7 88 3.6 38.4
04:05 1011 29.85 840 24.81 5.3 41.6 88 3.5 38.4
04:10 1011 29.85 840 24.81 5.4 41.7 88 3.6 38.5
04:15 1011 29.85 840 24.81 5.4 41.8 89 3.7 38.7
04:20 1011 29.85 840 24.81 5.4 41.8 88 3.6 38.5
04:25 1011 29.85 840 24.81 5.4 41.8 88 3.6 38.5
04:30 1011 29.85 840 24.81 5.4 41.8 88 3.5 38.3
04:35 1011 29.85 840 24.81 5.4 41.7 88 3.6 38.5
04:40 1011 29.85 840 24.81 5.4 41.8 88 3.6 38.5
04:45 1011 29.85 840 24.81 5.5 41.8 88 3.6 38.5
04:50 1011 29.85 840 24.81 5.5 41.8 88 3.7 38.6
04:55 1011 29.85 840 24.81 5.5 41.8 88 3.6 38.5
05:00 1011 29.85 840 24.81 5.4 41.8 88 3.6 38.5
05:05 1011 29.85 840 24.81 5.4 41.7 88 3.6 38.5
05:10 1011 29.85 840 24.81 5.4 41.8 88 3.6 38.5
05:15 1011 29.85 840 24.81 5.5 41.8 88 3.7 38.7
05:20 1011 29.85 840 24.81 5.5 41.9 89 3.8 38.8
05:25 1011 29.85 840 24.81 5.5 41.9 89 3.8 38.8
05:30 1011 29.85 840 24.81 5.5 41.9 89 3.8 38.9
05:35 1011 29.85 840 24.81 5.5 42 89 3.8 38.8
05:40 1011 29.85 840 24.81 5.6 42.1 89 3.9 39
05:45 1011 29.85 840 24.81 5.6 42 89 3.9 38.9
05:50 1011 29.85 840 24.81 5.6 42 89 3.9 39
05:55 1011 29.85 840 24.81 5.5 41.9 88 3.7 38.7
06:00 1011 29.85 840 24.81 5.4 41.8 88 3.6 38.5
06:05 1011 29.85 840 24.81 5.5 41.9 88 3.6 38.6
06:10 1011 29.85 840 24.81 5.5 41.9 87 3.5 38.3
06:15 1011 29.85 840 24.81 5.5 41.9 86 3.3 38
06:20 1011 29.85 840 24.81 5.5 41.9 85 3.3 37.9
06:25 1011 29.85 840 24.81 5.5 41.9 85 3.1 37.6
06:30 1011 29.85 840 24.81 5.5 41.9 84 3 37.5
06:35 1011 29.85 840 24.81 5.5 42 85 3.2 37.8
06:40 1011 29.85 840 24.81 5.6 42.1 85 3.2 37.8
06:45 1011 29.85 840 24.81 5.6 42.1 85 3.3 37.9
06:50 1011 29.85 840 24.81 5.7 42.2 84 3.2 37.7
06:55 1011 29.85 840 24.81 5.6 42.1 84 3.2 37.8
07:00 1011 29.85 840 24.81 5.6 42.1 85 3.2 37.8
07:05 1011 29.85 840 24.81 5.7 42.2 84 3.1 37.6
07:10 1011 29.85 840 24.81 5.6 42.1 83 3 37.4
07:15 1011 29.85 840 24.81 5.6 42.2 82 2.8 37
07:20 1011 29.85 840 24.81 5.7 42.2 81 2.7 36.9
07:25 1011 29.85 840 24.81 5.7 42.3 81 2.7 36.8
07:30 1011 29.85 840 24.81 5.8 42.4 81 2.8 37
07:35 1011 29.85 840 24.81 5.8 42.5 81 2.9 37.2
07:40 1011 29.85 840 24.81 5.9 42.6 82 3 37.5
07:45 1011 29.85 840 24.81 6 42.7 81 3 37.3
07:50 1011 29.85 840 24.81 5.8 42.5 83 3.2 37.7
07:55 1011 29.85 841 24.83 5.8 42.5 82 3.1 37.5
08:00 1011 29.85 840 24.81 5.7 42.2 83 3 37.4
08:05 1011 29.85 841 24.83 5.5 42 84 3 37.4
08:10 1011 29.85 841 24.83 5.5 41.8 84 2.9 37.2
08:15 1011 29.85 841 24.83 5.4 41.8 84 2.9 37.3
08:20 1011 29.85 841 24.83 5.4 41.7 85 3 37.5
08:25 1011 29.85 841 24.83 5.4 41.7 84 2.8 37.1
08:30 1011 29.85 841 24.83 5.3 41.5 84 2.8 37.1
08:35 1011 29.85 841 24.83 5.2 41.4 84 2.8 37.1
08:40 1011 29.85 841 24.83 5.1 41.2 85 2.8 37
08:45 1011 29.85 841 24.83 5.2 41.4 85 3 37.3
08:50 1011 29.85 841 24.83 5.3 41.6 86 3.2 37.8
08:55 1011 29.85 841 24.83 5.4 41.7 84 3 37.4
09:00 1011 29.85 841 24.83 5.3 41.5 84 2.9 37.2
09:05 1011 29.85 841 24.83 5 41.1 84 2.6 36.7
09:10 1011 29.85 841 24.83 5 41 83 2.3 36.2
09:15 1011 29.85 841 24.83 4.9 40.9 85 2.6 36.6
09:20 1011 29.85 841 24.83 4.9 40.9 84 2.5 36.5
09:25 1011 29.85 841 24.83 4.9 40.8 84 2.4 36.3
09:30 1011 29.85 841 24.83 4.9 40.9 84 2.5 36.4
09:35 1011 29.85 841 24.83 4.9 40.9 84 2.4 36.3
09:40 1011 29.85 841 24.83 5 40.9 82 2.2 35.9
09:45 1011 29.85 841 24.83 5.1 41.2 81 2.2 35.9
09:50 1011 29.85 841 24.83 5.1 41.2 81 2.1 35.8
09:55 1011 29.85 841 24.83 5.1 41.1 82 2.2 35.9
10:00 1011 29.85 841 24.83 5 41 83 2.3 36.2
10:05 1011 29.85 841 24.83 5.1 41.2 81 2.2 35.9
10:10 1011 29.85 841 24.83 5.3 41.6 82 2.4 36.4
10:15 1011 29.85 841 24.83 5.4 41.7 80 2.3 36.1
10:20 1011 29.85 841 24.83 5.4 41.8 82 2.5 36.5
10:25 1011 29.85 841 24.83 5.4 41.7 82 2.5 36.5
10:30 1011 29.85 841 24.83 5.3 41.6 83 2.6 36.6
10:35 1011 29.85 841 24.83 5.3 41.6 83 2.6 36.7
10:40 1011 29.85 841 24.83 5.4 41.7 83 2.7 36.8
10:45 1011 29.85 841 24.83 5.5 42 82 2.8 37
10:50 1011 29.85 841 24.83 5.5 41.8 80 2.4 36.2
10:55 1011 29.85 841 24.83 5.5 41.9 82 2.6 36.6
11:00 1011 29.85 841 24.83 5.6 42.1 82 2.7 36.9
11:05 1011 29.85 841 24.83 5.8 42.5 78 2.4 36.2
11:10 1011 29.85 841 24.83 5.9 42.5 81 2.8 37
11:15 1011 29.85 841 24.83 5.9 42.6 78 2.3 36.2
11:20 1011 29.85 841 24.83 5.9 42.6 78 2.4 36.3
11:25 1011 29.85 841 24.83 6 42.9 76 2.2 35.9
11:30 1011 29.85 840 24.81 6.3 43.4 74 2.1 35.8
11:35 1011 29.85 840 24.81 6.3 43.3 76 2.4 36.4
11:40 1011 29.85 840 24.81 6.6 43.9 76 2.7 36.8
11:45 1011 29.85 840 24.81 6.8 44.2 74 2.4 36.3
11:50 1011 29.85 840 24.81 6.7 44.1 72 2.1 35.8
11:55 1011 29.85 840 24.81 6.8 44.2 72 2.2 36
12:00 1011 29.85 840 24.81 6.9 44.4 73 2.3 36.2
12:05 1011 29.85 840 24.81 7 44.7 74 2.8 37
12:10 1011 29.85 840 24.81 7.5 45.4 74 3.1 37.5
12:15 1011 29.85 840 24.81 7.7 45.9 71 2.9 37.2
12:20 1011 29.85 840 24.81 7.6 45.7 69 2.3 36.2
12:25 1011 29.85 840 24.81 7.9 46.2 69 2.5 36.6
12:30 1011 29.85 840 24.81 8.2 46.8 67 2.5 36.5
12:35 1011 29.85 840 24.81 7.9 46.2 70 2.7 36.9
12:40 1011 29.85 840 24.81 7.9 46.2 71 3 37.4
12:45 1011 29.85 840 24.81 7.7 45.8 74 3.2 37.8
12:50 1011 29.85 840 24.81 7.6 45.7 71 2.7 36.9
12:55 1011 29.85 840 24.81 8 46.3 68 2.4 36.3
13:00 1011 29.85 840 24.81 8.3 47 68 2.7 36.8
13:05 1011 29.85 840 24.81 8.8 47.8 67 2.9 37.2
13:10 1011 29.85 840 24.81 9.3 48.7 62 2.5 36.5
13:15 1011 29.85 840 24.81 9.2 48.6 63 2.5 36.6
13:20 1011 29.85 840 24.81 9.2 48.5 65 2.9 37.2
13:25 1011 29.85 840 24.81 8.7 47.6 66 2.8 37
13:30 1011 29.85 840 24.81 8 46.3 69 2.7 36.9
13:35 1011 29.85 840 24.81 8.1 46.6 71 3.2 37.7
13:40 1011 29.85 840 24.81 8.1 46.5 71 3.2 37.7
13:45 1011 29.85 840 24.81 7.8 46 73 3.3 38
13:50 1011 29.85 840 24.81 7.6 45.6 76 3.6 38.4
13:55 1011 29.85 840 24.81 7.7 45.9 76 3.9 39
14:00 1011 29.85 840 24.81 7.6 45.7 78 4.1 39.4
14:05 1011 29.85 840 24.81 7.4 45.3 79 3.9 39.1
14:10 1011 29.85 840 24.81 6.7 44.1 76 2.8 37.1
14:15 1011 29.85 840 24.81 6.6 44 74 2.4 36.3
14:20 1011 29.85 840 24.81 6.7 44.1 80 3.4 38.2
14:25 1011 29.85 840 24.81 6.8 44.2 82 3.9 39.1
14:30 1011 29.85 840 24.81 6.7 44 82 3.8 38.9
14:35 1011 29.85 840 24.81 6.6 43.9 82 3.7 38.6
14:40 1011 29.85 840 24.81 6.5 43.7 82 3.6 38.5
14:45 1011 29.85 840 24.81 6.5 43.7 80 3.2 37.8
14:50 1011 29.85 840 24.81 6.4 43.5 84 3.9 39
14:55 1011 29.85 840 24.81 6.5 43.7 82 3.7 38.7
15:00 1011 29.85 840 24.81 6.5 43.6 81 3.5 38.2
15:05 1011 29.85 840 24.81 6.4 43.5 82 3.5 38.3
15:10 1011 29.85 840 24.81 6.6 43.8 81 3.6 38.5
15:15 1011 29.85 840 24.81 6.6 43.9 80 3.4 38.1
15:20 1011 29.85 840 24.81 6.6 43.9 78 3.1 37.5
15:25 1011 29.85 840 24.81 6.7 44.1 80 3.6 38.4
15:30 1011 29.85 840 24.81 6.8 44.2 81 3.7 38.7
15:35 1011 29.85 840 24.81 6.5 43.7 83 3.9 39
15:40 1011 29.85 840 24.81 6.5 43.6 82 3.5 38.4
15:45 1011 29.85 841 24.83 6.4 43.5 80 3.3 37.9
15:50 1011 29.85 841 24.83 6.4 43.5 81 3.4 38.1
15:55 1012 29.88 841 24.83 6.4 43.5 81 3.4 38
16:00 1012 29.88 841 24.83 6.2 43.2 84 3.7 38.7
16:05 1012 29.88 841 24.83 6.1 43 83 3.5 38.2
16:10 1012 29.88 841 24.83 6 42.8 85 3.7 38.6
16:15 1012 29.88 841 24.83 6 42.8 86 3.8 38.9
16:20 1012 29.88 841 24.83 5.9 42.6 86 3.7 38.7
16:25 1012 29.88 841 24.83 5.9 42.7 87 3.9 39
16:30 1012 29.88 841 24.83 6 42.8 87 3.9 39.1
16:35 1012 29.88 841 24.83 5.9 42.7 85 3.6 38.6
16:40 1012 29.88 841 24.83 5.8 42.4 85 3.5 38.2
16:45 1012 29.88 841 24.83 5.7 42.3 85 3.4 38.2
16:50 1012 29.88 841 24.83 5.7 42.2 86 3.5 38.4
16:55 1012 29.88 841 24.83 5.7 42.2 85 3.4 38.1
17:00 1012 29.88 841 24.83 5.7 42.3 85 3.4 38.2
17:05 1012 29.88 841 24.83 5.9 42.6 85 3.5 38.3
17:10 1012 29.88 841 24.83 6.1 42.9 82 3.3 37.9
17:15 1012 29.88 841 24.83 6.2 43.2 80 3.1 37.6
17:20 1012 29.88 841 24.83 6.3 43.3 81 3.3 37.9
17:25 1012 29.88 841 24.83 6.5 43.7 81 3.4 38.1
17:30 1012 29.88 841 24.83 6.5 43.7 82 3.7 38.7
17:35 1012 29.88 842 24.86 6.5 43.8 82 3.7 38.6
17:40 1012 29.88 842 24.86 6.6 44 79 3.3 38
17:45 1012 29.88 842 24.86 6.7 44.1 80 3.5 38.3
17:50 1012 29.88 842 24.86 6.8 44.2 80 3.5 38.3
17:55 1012 29.88 842 24.86 6.7 44 79 3.4 38.1
18:00 1013 29.91 842 24.86 6.6 43.9 78 3 37.5
18:05 1013 29.91 842 24.86 6.6 43.9 80 3.4 38.1
18:10 1013 29.91 842 24.86 6.5 43.7 79 3.2 37.8
18:15 1013 29.91 842 24.86 6.5 43.7 81 3.5 38.4
18:20 1013 29.91 842 24.86 6.5 43.7 81 3.5 38.2
18:25 1013 29.91 842 24.86 6.3 43.4 80 3.1 37.5
18:30 1013 29.91 842 24.86 6.4 43.6 80 3.3 37.9
18:35 1013 29.91 842 24.86 6.4 43.5 78 2.9 37.2
18:40 1013 29.91 842 24.86 6.4 43.5 77 2.7 36.8
18:45 1013 29.91 842 24.86 6.5 43.7 76 2.5 36.6
18:50 1013 29.91 842 24.86 6.5 43.8 78 3 37.4
18:55 1013 29.91 842 24.86 6.5 43.7 75 2.4 36.3
19:00 1013 29.91 842 24.86 6.5 43.7 79 3.1 37.6
19:05 1013 29.91 842 24.86 6.5 43.7 81 3.5 38.3
19:10 1013 29.91 842 24.86 6.4 43.6 78 2.9 37.1
19:15 1013 29.91 842 24.86 6.4 43.6 76 2.6 36.6
19:20 1013 29.91 842 24.86 6.6 43.8 74 2.2 36
19:25 1013 29.91 842 24.86 6.5 43.7 73 2 35.6
19:30 1013 29.91 843 24.89 6.5 43.6 73 2.1 35.7
19:35 1013 29.91 843 24.89 6.4 43.5 77 2.7 36.9
19:40 1013 29.91 843 24.89 6.1 43 78 2.6 36.6
19:45 1013 29.91 843 24.89 6.1 43.1 77 2.5 36.4
19:50 1014 29.94 843 24.89 6 42.8 81 3 37.3
19:55 1014 29.94 843 24.89 5.7 42.2 80 2.5 36.5
20:00 1014 29.94 843 24.89 5.6 42 80 2.3 36.2
20:05 1014 29.94 843 24.89 5.4 41.7 78 1.9 35.5
20:10 1014 29.94 843 24.89 5.2 41.4 80 2 35.6
20:15 1014 29.94 843 24.89 5.1 41.2 79 1.8 35.2
20:20 1014 29.94 843 24.89 5.1 41.1 78 1.6 34.9
20:25 1014 29.94 843 24.89 5 41 79 1.7 35
20:30 1014 29.94 843 24.89 4.9 40.9 79 1.6 35
20:35 1014 29.94 843 24.89 4.9 40.8 80 1.8 35.2
20:40 1014 29.94 843 24.89 4.9 40.8 80 1.6 34.9
20:45 1014 29.94 843 24.89 4.9 40.8 79 1.6 34.9
20:50 1014 29.94 843 24.89 4.8 40.6 80 1.6 34.9
20:55 1014 29.94 843 24.89 4.7 40.5 80 1.6 34.9
21:00 1014 29.94 843 24.89 4.7 40.5 81 1.8 35.2
21:05 1014 29.94 843 24.89 4.8 40.6 80 1.5 34.8
21:10 1014 29.94 843 24.89 4.9 40.8 80 1.7 35
21:15 1014 29.94 843 24.89 5 40.9 78 1.4 34.5
21:20 1014 29.94 843 24.89 5 40.9 79 1.6 34.9
21:25 1014 29.94 843 24.89 5 41 81 1.9 35.4
21:30 1014 29.94 843 24.89 4.9 40.9 77 1.3 34.4
21:35 1014 29.94 843 24.89 4.9 40.9 78 1.4 34.6
21:40 1014 29.94 843 24.89 5 40.9 77 1.2 34.2
21:45 1014 29.94 843 24.89 5 41 77 1.3 34.3
21:50 1014 29.94 843 24.89 4.9 40.9 77 1.2 34.1
21:55 1014 29.94 843 24.89 5 41.1 77 1.3 34.4
22:00 1014 29.94 843 24.89 5.1 41.1 77 1.4 34.5
22:05 1014 29.94 843 24.89 5.1 41.2 75 1 33.8
22:10 1014 29.94 843 24.89 5 41.1 76 1.1 33.9
22:15 1014 29.94 843 24.89 5.1 41.1 77 1.5 34.6
22:20 1014 29.94 843 24.89 5 40.9 76 1.1 33.9
22:25 1014 29.94 843 24.89 4.8 40.6 73 0.3 32.6
22:30 1014 29.94 843 24.89 4.7 40.5 73 0.3 32.5
22:35 1014 29.94 843 24.89 4.7 40.4 74 0.5 32.9
22:40 1014 29.94 843 24.89 4.7 40.4 75 0.6 33.1
22:45 1014 29.94 843 24.89 4.6 40.4 77 0.9 33.6
22:50 1014 29.94 843 24.89 4.6 40.2 79 1.3 34.4
22:55 1014 29.94 843 24.89 4.4 40 78 1 33.8
23:00 1014 29.94 843 24.89 4.4 39.9 79 1.2 34.1
23:05 1014 29.94 843 24.89 4.3 39.7 80 1.1 34
23:10 1014 29.94 843 24.89 4.2 39.6 80 1.1 34
23:15 1014 29.94 843 24.89 4.1 39.3 81 1.1 33.9
23:20 1014 29.94 843 24.89 3.9 39.1 81 1 33.9
23:25 1014 29.94 843 24.89 3.9 39.1 80 0.8 33.4
23:30 1014 29.94 843 24.89 4 39.1 80 0.8 33.5
23:35 1014 29.94 843 24.89 4 39.2 78 0.5 33
23:40 1014 29.94 843 24.89 4 39.3 80 0.9 33.6
23:45 1014 29.94 843 24.89 4 39.2 81 1 33.7
23:50 1014 29.94 843 24.89 4 39.2 81 1 33.8
23:55 1014 29.94 843 24.89 4 39.2 80 0.9 33.6
24:00 1014 29.94 843 24.89 4.1 39.3 81 1.1 34